Time;durP1;ratioP1;P1;durP2;ratioP2;P2;SDS_P1;SDS_P2;PMS_P1;PMS_P2;Temp;Humidity;BMP_temperature;BMP_pressure;BME280_temperature;BME280_humidity;BME280_pressure;Samples;Min_cycle;Max_cycle;Signal;HPM_P1;HPM_P2
2023/04/03 00:00:37;;;;;;;5.80;5.20;;;;;;;6.94;70.53;96121.16;6182183;23;20752;-88
2023/04/03 00:03:05;;;;;;;6.17;5.10;;;;;;;6.95;70.69;96119.38;6183473;23;20174;-88
2023/04/03 00:05:33;;;;;;;8.27;5.50;;;;;;;6.98;70.83;96125.97;6182900;23;20346;-88
2023/04/03 00:08:01;;;;;;;6.70;5.00;;;;;;;6.88;70.61;96129.41;6183754;23;20174;-88
2023/04/03 00:10:28;;;;;;;6.97;5.17;;;;;;;6.94;71.02;96125.44;6183781;23;20229;-88
2023/04/03 00:12:57;;;;;;;5.57;5.07;;;;;;;6.98;71.02;96128.53;6183693;23;20180;-87
2023/04/03 00:15:24;;;;;;;6.40;5.40;;;;;;;6.89;70.86;96130.22;6183467;23;20204;-88
2023/04/03 00:17:50;;;;;;;5.63;5.07;;;;;;;6.82;70.89;96129.16;6184211;23;20198;-89
2023/04/03 00:20:17;;;;;;;5.17;4.67;;;;;;;6.86;70.91;96133.03;6184959;23;20202;-89
2023/04/03 00:22:47;;;;;;;5.40;4.70;;;;;;;6.80;71.64;96125.91;6184906;23;20182;-87
2023/04/03 00:25:14;;;;;;;7.47;4.73;;;;;;;6.79;71.27;96131.97;6184497;23;20174;-88
2023/04/03 00:27:40;;;;;;;5.10;4.70;;;;;;;6.85;71.03;96132.25;6184891;23;20553;-88
2023/04/03 00:30:11;;;;;;;5.80;4.87;;;;;;;6.91;71.32;96130.88;6185479;23;20221;-87
2023/04/03 00:32:40;;;;;;;5.23;4.73;;;;;;;6.87;71.36;96132.09;6184784;23;20163;-87
2023/04/03 00:35:07;;;;;;;6.40;4.80;;;;;;;6.91;71.31;96128.31;6185320;23;20245;-88
2023/04/03 00:37:34;;;;;;;4.90;4.50;;;;;;;6.90;71.30;96129.25;6185055;23;20179;-88
2023/04/03 00:40:02;;;;;;;5.10;4.60;;;;;;;6.93;70.72;96122.09;6184575;23;20200;-89
2023/04/03 00:42:29;;;;;;;6.40;4.90;;;;;;;6.96;70.73;96127.88;6185240;23;20178;-87
2023/04/03 00:45:26;;;;;;;5.10;4.60;;;;;;;6.91;70.80;96131.69;6185549;23;20170;-89
2023/04/03 00:47:52;;;;;;;5.23;4.23;;;;;;;6.91;70.44;96131.69;6184482;23;20179;-86
2023/04/03 00:50:19;;;;;;;5.07;4.23;;;;;;;6.88;70.27;96121.72;6184757;23;20199;-86
2023/04/03 00:52:48;;;;;;;5.00;4.40;;;;;;;6.83;70.87;96125.63;6184404;23;20178;-88
2023/04/03 00:55:17;;;;;;;4.80;4.40;;;;;;;6.85;70.36;96116.88;6185225;23;20213;-87
2023/04/03 00:57:47;;;;;;;5.77;4.17;;;;;;;6.88;70.58;96131.16;6184737;23;20174;-88
2023/04/03 01:00:18;;;;;;;4.60;4.20;;;;;;;6.88;71.07;96120.91;6185322;23;20190;-88
2023/04/03 01:02:44;;;;;;;4.70;4.30;;;;;;;6.95;70.88;96132.19;6184293;23;20165;-87
2023/04/03 01:05:11;;;;;;;5.80;4.20;;;;;;;6.96;70.89;96127.88;6185136;23;20197;-88
2023/04/03 01:07:38;;;;;;;4.90;4.40;;;;;;;7.00;70.79;96134.34;6185505;23;20179;-88
2023/04/03 01:10:07;;;;;;;5.80;4.40;;;;;;;6.96;70.59;96133.81;6184889;23;20204;-87
2023/04/03 01:12:37;;;;;;;5.13;4.63;;;;;;;6.92;71.12;96130.75;6185008;23;20178;-88
2023/04/03 01:15:08;;;;;;;4.93;4.33;;;;;;;6.90;71.13;96124.94;6184509;23;20209;-86
2023/04/03 01:17:36;;;;;;;6.83;4.50;;;;;;;6.83;70.97;96128.19;6184112;23;20162;-88
2023/04/03 01:20:40;;;;;;;4.30;3.90;;;;;;;6.84;71.30;96130.63;6184936;23;20208;-87
2023/04/03 01:23:18;;;;;;;5.00;4.00;;;;;;;6.78;71.14;96135.47;6184444;23;20675;-89
2023/04/03 01:25:52;;;;;;;5.47;4.33;;;;;;;6.77;71.23;96134.69;6185025;23;20155;-87
2023/04/03 01:28:24;;;;;;;4.73;4.17;;;;;;;6.86;71.08;96130.47;6183389;23;20245;-88
2023/04/03 01:30:56;;;;;;;4.80;4.40;;;;;;;6.87;70.91;96129.53;6184389;23;20163;-88
2023/04/03 01:33:24;;;;;;;4.67;4.17;;;;;;;6.85;70.63;96139.09;6183961;23;20170;-87
2023/04/03 01:35:50;;;;;;;5.17;4.40;;;;;;;6.89;70.53;96138.69;6184108;23;20829;-88
2023/04/03 01:38:17;;;;;;;6.83;4.23;;;;;;;6.81;70.42;96136.00;6184459;23;20361;-88
2023/04/03 01:40:43;;;;;;;5.20;4.70;;;;;;;6.76;70.88;96138.19;6184363;23;20196;-87
2023/04/03 01:43:10;;;;;;;4.40;4.00;;;;;;;6.80;70.55;96136.97;6183591;23;20182;-87
2023/04/03 01:45:36;;;;;;;4.43;4.03;;;;;;;6.80;71.14;96136.16;6184399;23;20509;-87
2023/04/03 01:48:04;;;;;;;5.43;4.40;;;;;;;6.58;71.62;96143.22;6184189;23;20178;-88
2023/04/03 01:50:33;;;;;;;4.60;4.20;;;;;;;6.64;71.30;96138.50;6183477;23;20198;-88
2023/04/03 01:52:59;;;;;;;4.87;4.47;;;;;;;6.51;71.52;96131.94;6184769;23;20175;-87
2023/04/03 01:55:26;;;;;;;4.80;4.20;;;;;;;6.60;71.28;96132.84;6185322;23;20661;-87
2023/04/03 01:57:52;;;;;;;4.97;4.47;;;;;;;6.65;71.73;96130.69;6184423;23;20696;-87
2023/04/03 02:00:19;;;;;;;6.07;4.23;;;;;;;6.47;71.89;96140.81;6184566;23;20191;-87
2023/04/03 02:02:46;;;;;;;4.83;4.30;;;;;;;6.55;71.75;96138.38;6183881;23;20185;-87
2023/04/03 02:05:12;;;;;;;4.70;4.30;;;;;;;6.54;72.14;96138.53;6184505;23;20177;-89
2023/04/03 02:07:40;;;;;;;5.10;4.33;;;;;;;6.58;71.75;96134.72;6184172;23;20200;-88
2023/04/03 02:10:07;;;;;;;4.97;4.13;;;;;;;6.55;71.61;96137.56;6184747;23;20198;-88
2023/04/03 02:12:36;;;;;;;4.87;3.97;;;;;;;6.61;71.83;96137.00;6184493;23;20178;-87
2023/04/03 02:15:09;;;;;;;4.50;4.10;;;;;;;6.66;72.06;96137.41;6184260;23;20228;-88
2023/04/03 02:17:36;;;;;;;4.40;4.00;;;;;;;6.68;71.29;96134.72;6183618;23;20162;-87
2023/04/03 02:20:04;;;;;;;4.40;4.00;;;;;;;6.73;71.14;96128.25;6184013;23;20201;-87
2023/04/03 02:22:30;;;;;;;4.63;4.23;;;;;;;6.74;71.10;96127.28;6183745;23;20190;-87
2023/04/03 02:24:58;;;;;;;4.30;3.90;;;;;;;6.76;70.65;96132.25;6183367;23;20175;-87
2023/04/03 02:27:25;;;;;;;5.80;5.10;;;;;;;6.77;70.87;96128.75;6184173;23;20186;-88
2023/04/03 02:29:51;;;;;;;4.47;4.07;;;;;;;6.81;70.93;96127.53;6184111;23;20740;-87
2023/04/03 02:32:18;;;;;;;4.23;3.80;;;;;;;6.81;70.32;96122.41;6183532;23;20180;-87
2023/04/03 02:34:44;;;;;;;5.80;3.70;;;;;;;6.80;70.23;96124.16;6184388;23;20516;-88
2023/04/03 02:37:11;;;;;;;4.60;4.20;;;;;;;6.82;70.07;96126.59;6184244;23;20182;-86
2023/04/03 02:39:37;;;;;;;4.43;4.03;;;;;;;6.76;69.58;96127.13;6183196;23;20194;-88
2023/04/03 02:42:08;;;;;;;4.43;4.03;;;;;;;6.69;70.22;96124.34;6183670;23;20189;-87
2023/04/03 02:44:35;;;;;;;3.93;3.60;;;;;;;6.71;70.44;96119.09;6184723;23;20323;-88
2023/04/03 02:47:02;;;;;;;4.03;3.63;;;;;;;6.75;70.00;96125.53;6184276;23;20178;-88
2023/04/03 02:49:29;;;;;;;4.20;3.80;;;;;;;6.77;70.14;96124.44;6183458;23;20768;-86
2023/04/03 02:51:55;;;;;;;4.30;3.50;;;;;;;6.80;69.86;96121.59;6184047;23;20178;-86
2023/04/03 02:54:23;;;;;;;3.70;3.40;;;;;;;6.82;69.73;96126.59;6183267;23;20181;-86
2023/04/03 02:56:50;;;;;;;4.57;3.60;;;;;;;6.84;69.75;96122.94;6184487;23;20174;-88
2023/04/03 02:59:17;;;;;;;3.60;3.30;;;;;;;6.68;69.73;96134.72;6184121;23;20192;-88
2023/04/03 03:01:44;;;;;;;4.67;3.57;;;;;;;6.61;69.78;96131.09;6182723;23;20178;-88
2023/04/03 03:04:11;;;;;;;6.00;3.80;;;;;;;6.43;70.04;96131.78;6183744;23;20178;-88
2023/04/03 03:06:41;;;;;;;3.63;3.33;;;;;;;6.50;69.86;96126.94;6183090;23;20166;-87
2023/04/03 03:09:07;;;;;;;3.93;3.63;;;;;;;6.49;69.67;96133.00;6183228;23;20202;-87
2023/04/03 03:11:34;;;;;;;3.30;3.10;;;;;;;6.42;69.72;96137.84;6183831;23;20178;-88
2023/04/03 03:14:00;;;;;;;3.60;3.30;;;;;;;6.36;68.93;96130.72;6184346;23;20179;-87
2023/04/03 03:16:28;;;;;;;3.50;3.03;;;;;;;6.42;68.87;96132.75;6183746;23;20252;-87
2023/04/03 03:18:55;;;;;;;3.73;3.10;;;;;;;6.47;68.90;96129.78;6183689;23;20620;-89
2023/04/03 03:21:22;;;;;;;3.17;2.93;;;;;;;6.51;68.26;96133.69;6184085;23;20182;-87
2023/04/03 03:23:49;;;;;;;4.10;3.10;;;;;;;6.43;68.04;96136.91;6183047;23;20186;-88
2023/04/03 03:26:17;;;;;;;3.40;3.10;;;;;;;6.48;68.63;96139.06;6184113;23;20182;-87
2023/04/03 03:28:46;;;;;;;3.30;3.00;;;;;;;6.47;68.09;96137.44;6183151;23;20924;-87
2023/04/03 03:31:13;;;;;;;4.63;3.23;;;;;;;6.54;68.15;96129.06;6183580;23;20200;-89
2023/04/03 03:33:41;;;;;;;4.17;3.13;;;;;;;6.55;68.04;96125.56;6183763;23;20487;-87
2023/04/03 03:36:08;;;;;;;3.50;3.10;;;;;;;6.53;67.63;96134.34;6183270;23;20289;-88
2023/04/03 03:38:34;;;;;;;3.30;3.00;;;;;;;6.52;67.40;96137.84;6182439;23;20245;-88
2023/04/03 03:41:01;;;;;;;3.13;2.87;;;;;;;6.51;67.67;96128.56;6183640;23;20181;-88
2023/04/03 03:43:28;;;;;;;3.10;2.87;;;;;;;6.51;68.05;96133.69;6182713;23;20253;-87
2023/04/03 03:45:56;;;;;;;2.97;2.67;;;;;;;6.58;67.78;96132.16;6183115;23;20182;-88
2023/04/03 03:48:23;;;;;;;3.30;3.00;;;;;;;6.65;67.87;96133.25;6183681;23;20174;-88
2023/04/03 03:50:51;;;;;;;3.53;3.23;;;;;;;6.68;67.36;96134.72;6183547;23;20581;-88
2023/04/03 03:53:19;;;;;;;2.77;2.57;;;;;;;6.66;67.18;96137.41;6184125;23;20174;-89
2023/04/03 03:55:45;;;;;;;3.07;2.83;;;;;;;6.69;67.35;96134.59;6183757;23;20201;-87
2023/04/03 03:58:12;;;;;;;3.30;3.00;;;;;;;6.71;67.08;96130.13;6184264;23;20201;-86
2023/04/03 04:00:38;;;;;;;4.13;3.33;;;;;;;6.72;67.42;96136.06;6182863;23;20194;-88
2023/04/03 04:03:07;;;;;;;3.73;3.00;;;;;;;6.74;67.06;96129.84;6183653;23;20174;-87
2023/04/03 04:05:34;;;;;;;2.93;2.73;;;;;;;6.77;67.17;96131.31;6183156;23;20177;-88
2023/04/03 04:08:02;;;;;;;3.60;3.00;;;;;;;6.73;67.02;96128.25;6183181;23;20197;-88
2023/04/03 04:10:28;;;;;;;3.10;2.80;;;;;;;6.53;66.89;96126.69;6185069;23;20255;-87
2023/04/03 04:12:55;;;;;;;3.17;2.87;;;;;;;6.59;67.53;96131.22;6185261;23;20565;-89
2023/04/03 04:15:22;;;;;;;4.10;3.00;;;;;;;6.65;67.65;96129.88;6184285;23;20205;-89
2023/04/03 04:17:53;;;;;;;3.00;2.80;;;;;;;6.68;67.11;96129.59;6183930;23;20625;-88
2023/04/03 04:20:19;;;;;;;3.10;2.87;;;;;;;6.72;66.82;96130.94;6184076;23;20213;-88
2023/04/03 04:22:46;;;;;;;4.30;2.83;;;;;;;6.64;66.98;96130.81;6184119;23;20182;-89
2023/04/03 04:25:13;;;;;;;3.77;2.93;;;;;;;6.70;66.91;96128.53;6184424;23;20170;-89
2023/04/03 04:27:40;;;;;;;3.20;2.87;;;;;;;6.67;66.66;96135.66;6184090;23;20178;-89
2023/04/03 04:30:08;;;;;;;3.43;2.93;;;;;;;6.68;66.99;96132.16;6183904;23;20206;-88
2023/04/03 04:32:35;;;;;;;3.13;2.87;;;;;;;6.64;66.72;96130.81;6184058;23;20423;-88
2023/04/03 04:35:01;;;;;;;3.33;3.03;;;;;;;6.63;66.85;96142.00;6183302;23;20264;-88
2023/04/03 04:37:28;;;;;;;3.10;2.83;;;;;;;6.69;66.85;96142.25;6182164;23;20174;-88
2023/04/03 04:39:54;;;;;;;4.13;2.87;;;;;;;6.70;66.96;96140.50;6182681;23;20208;-88
2023/04/03 04:42:24;;;;;;;4.37;2.53;;;;;;;6.75;66.46;96146.00;6179430;23;20185;-87
2023/04/03 04:44:51;;;;;;;3.50;2.93;;;;;;;6.68;66.77;96147.50;6181084;23;20178;-88
2023/04/03 04:47:18;;;;;;;3.60;3.30;;;;;;;6.64;66.16;96153.84;6182505;23;20592;-86
2023/04/03 04:49:45;;;;;;;3.27;2.97;;;;;;;6.65;66.54;96145.22;6181943;23;20190;-88
2023/04/03 04:52:11;;;;;;;3.30;3.00;;;;;;;6.68;66.43;96145.75;6172523;23;20205;-88
2023/04/03 04:54:38;;;;;;;3.40;3.10;;;;;;;6.56;66.97;96145.09;6174267;23;20774;-87
2023/04/03 04:57:04;;;;;;;3.40;3.10;;;;;;;6.59;66.71;96139.72;6178844;23;20202;-86
2023/04/03 04:59:33;;;;;;;3.50;3.20;;;;;;;6.60;66.78;96145.63;6181848;23;20194;-89
2023/04/03 05:02:00;;;;;;;3.37;2.77;;;;;;;6.64;66.83;96154.66;6181779;23;20171;-87
2023/04/03 05:04:26;;;;;;;4.30;3.30;;;;;;;6.70;67.10;96143.06;6185387;23;20185;-88
2023/04/03 05:06:53;;;;;;;3.47;3.00;;;;;;;6.73;66.85;96148.72;6184954;23;20185;-89
2023/04/03 05:09:20;;;;;;;3.63;3.10;;;;;;;6.74;66.46;96154.63;6185296;23;20194;-87
2023/04/03 05:11:49;;;;;;;5.03;3.37;;;;;;;6.67;66.96;96151.00;6183947;23;20673;-86
2023/04/03 05:14:16;;;;;;;5.03;3.03;;;;;;;6.65;67.00;96158.81;6184699;23;20736;-86
2023/04/03 05:16:47;;;;;;;3.63;3.10;;;;;;;6.70;67.67;96155.84;6182941;23;20194;-86
2023/04/03 05:19:14;;;;;;;3.40;3.10;;;;;;;6.72;66.98;96153.97;6182775;23;20198;-87
2023/04/03 05:21:41;;;;;;;13.67;10.97;;;;;;;6.66;66.99;96155.31;6183526;23;20205;-88
2023/04/03 05:24:09;;;;;;;49.83;36.80;;;;;;;6.62;66.67;96160.84;6185123;23;20237;-86
2023/04/03 05:29:19;;;;;;;5.13;4.23;;;;;;;6.60;65.98;96163.53;6180522;23;20201;-88
2023/04/03 05:31:53;;;;;;;3.97;3.30;;;;;;;6.64;65.47;96164.06;6184462;23;20178;-86
2023/04/03 05:34:20;;;;;;;3.63;3.20;;;;;;;6.66;65.77;96157.06;6184633;23;20175;-86
2023/04/03 05:36:46;;;;;;;3.70;3.00;;;;;;;6.69;66.08;96167.84;6185329;23;20201;-88
2023/04/03 05:39:16;;;;;;;3.40;3.10;;;;;;;6.68;65.99;96160.31;6184388;23;20199;-88
2023/04/03 05:41:42;;;;;;;3.87;3.10;;;;;;;6.61;65.94;96165.16;6183684;23;20175;-88
2023/04/03 05:44:11;;;;;;;3.40;3.10;;;;;;;6.69;65.98;96167.03;6183707;23;20184;-88
2023/04/03 05:46:46;;;;;;;4.30;3.03;;;;;;;6.54;65.24;96162.31;6184203;23;20183;-88
2023/04/03 05:49:16;;;;;;;3.70;3.20;;;;;;;6.43;66.38;96167.59;6184280;23;20236;-87
2023/04/03 05:51:44;;;;;;;3.87;3.40;;;;;;;6.45;66.28;96160.59;6184627;23;20162;-88
2023/04/03 05:54:14;;;;;;;3.03;2.70;;;;;;;6.55;66.33;96165.69;6183969;23;20174;-88
2023/04/03 05:56:41;;;;;;;3.60;3.30;;;;;;;6.51;66.25;96165.19;6183573;23;20198;-87
2023/04/03 05:59:09;;;;;;;4.33;3.30;;;;;;;6.53;65.72;96170.16;6183713;23;20190;-88
2023/04/03 06:01:38;;;;;;;4.00;3.23;;;;;;;6.56;66.35;96165.56;6183081;23;20174;-88
2023/04/03 06:04:08;;;;;;;17.50;13.40;;;;;;;6.62;66.29;96171.88;6184136;23;20661;-87
2023/04/03 06:07:00;;;;;;;13.23;9.90;;;;;;;6.65;65.96;96169.06;6183926;23;20182;-88
2023/04/03 06:09:29;;;;;;;6.50;4.93;;;;;;;6.67;65.76;96172.28;6183329;23;20190;-88
2023/04/03 06:11:58;;;;;;;3.97;3.60;;;;;;;6.70;65.40;96168.66;6184691;23;20174;-88
2023/04/03 06:14:29;;;;;;;4.73;3.50;;;;;;;6.74;65.70;96177.63;6185451;23;20212;-86
2023/04/03 06:16:56;;;;;;;3.77;3.00;;;;;;;6.75;65.73;96174.13;6184956;23;20194;-87
2023/04/03 06:19:25;;;;;;;3.53;3.20;;;;;;;6.75;65.49;96174.94;6184308;23;20273;-86
2023/04/03 06:21:53;;;;;;;5.43;3.37;;;;;;;6.75;65.40;96180.06;6184023;23;20182;-87
2023/04/03 06:24:25;;;;;;;3.40;3.10;;;;;;;6.80;65.38;96184.78;6184499;23;20159;-88
2023/04/03 06:26:52;;;;;;;6.90;3.47;;;;;;;6.82;65.27;96177.78;6185021;23;20218;-88
2023/04/03 06:29:20;;;;;;;3.83;3.23;;;;;;;6.89;64.78;96174.53;6184410;23;20190;-87
2023/04/03 06:31:47;;;;;;;4.83;3.60;;;;;;;6.97;65.07;96185.81;6183770;23;20174;-88
2023/04/03 06:34:18;;;;;;;6.00;3.50;;;;;;;7.00;64.79;96172.72;6184085;23;20208;-87
2023/04/03 06:36:51;;;;;;;4.03;3.63;;;;;;;7.07;65.03;96173.81;6183014;23;20650;-88
2023/04/03 06:39:20;;;;;;;5.17;3.23;;;;;;;7.07;65.01;96182.28;6182853;23;20225;-86
2023/04/03 06:41:52;;;;;;;6.90;4.03;;;;;;;7.08;64.67;96185.66;6183752;23;20174;-87
2023/04/03 06:44:19;;;;;;;4.27;3.40;;;;;;;7.06;64.73;96193.47;6183715;23;20277;-86
2023/04/03 06:46:48;;;;;;;3.67;3.33;;;;;;;7.03;63.77;96178.38;6183431;23;20174;-88
2023/04/03 06:49:23;;;;;;;4.23;3.70;;;;;;;6.87;63.94;96185.84;6184247;23;20574;-87
2023/04/03 06:51:51;;;;;;;5.00;3.50;;;;;;;6.80;64.42;96188.16;6185013;23;20161;-88
2023/04/03 06:54:18;;;;;;;4.53;3.40;;;;;;;6.82;64.66;96193.13;6183689;23;20225;-87
2023/04/03 06:56:52;;;;;;;3.83;3.10;;;;;;;6.90;63.82;96188.94;6184164;23;20198;-88
2023/04/03 06:59:19;;;;;;;3.90;3.50;;;;;;;6.95;63.61;96185.94;6184109;23;20265;-88
2023/04/03 07:01:48;;;;;;;4.37;3.60;;;;;;;7.03;63.55;96196.31;6183531;23;20198;-88
2023/04/03 07:04:15;;;;;;;4.40;3.73;;;;;;;6.94;62.77;96195.38;6183369;23;20182;-86
2023/04/03 07:06:44;;;;;;;4.00;3.63;;;;;;;6.96;62.77;96195.25;6184058;23;20197;-88
2023/04/03 07:09:11;;;;;;;4.00;3.60;;;;;;;7.00;62.49;96196.59;6183298;23;20576;-89
2023/04/03 07:11:38;;;;;;;3.60;3.30;;;;;;;7.09;62.92;96190.63;6184328;23;20186;-86
2023/04/03 07:14:05;;;;;;;3.93;3.37;;;;;;;7.06;62.62;96198.59;6182605;23;20173;-86
2023/04/03 07:16:33;;;;;;;3.43;3.13;;;;;;;7.07;62.46;96205.34;6182981;23;20198;-88
2023/04/03 07:19:00;;;;;;;3.33;3.03;;;;;;;7.09;61.79;96203.44;6183778;23;20277;-88
2023/04/03 07:21:26;;;;;;;3.37;3.07;;;;;;;7.10;62.41;96202.50;6184053;23;20224;-87
2023/04/03 07:23:53;;;;;;;35.30;26.80;;;;;;;7.14;61.85;96206.38;6184241;23;20233;-88
2023/04/03 07:26:20;;;;;;;12.93;9.07;;;;;;;7.20;61.82;96207.56;6183086;23;20193;-87
2023/04/03 07:28:49;;;;;;;4.00;3.70;;;;;;;7.09;60.85;96206.00;6181240;23;20498;-87
2023/04/03 07:31:18;;;;;;;6.63;3.70;;;;;;;7.01;62.41;96212.75;6182593;23;20185;-87
2023/04/03 07:33:47;;;;;;;4.20;3.80;;;;;;;7.10;62.53;96212.75;6184085;23;20170;-87
2023/04/03 07:36:23;;;;;;;6.13;3.70;;;;;;;7.14;62.52;96224.28;6182667;23;20194;-87
2023/04/03 07:38:51;;;;;;;4.93;3.73;;;;;;;7.19;63.00;96217.00;6183165;23;20158;-87
2023/04/03 07:41:40;;;;;;;5.07;3.80;;;;;;;7.26;62.56;96222.38;6183090;23;20174;-87
2023/04/03 07:44:09;;;;;;;7.67;3.60;;;;;;;7.24;62.15;96226.84;6171846;23;20178;-89
2023/04/03 07:46:38;;;;;;;4.63;3.90;;;;;;;7.24;61.96;96226.84;6180769;23;20170;-86
2023/04/03 07:49:06;;;;;;;4.17;3.60;;;;;;;7.27;61.89;96229.94;6183171;23;20195;-88
2023/04/03 07:51:32;;;;;;;3.73;3.43;;;;;;;7.18;62.30;96237.63;6183374;23;20181;-88
2023/04/03 07:54:01;;;;;;;3.93;3.43;;;;;;;7.19;61.44;96239.25;6182390;23;20186;-87
2023/04/03 07:56:27;;;;;;;4.30;3.90;;;;;;;7.15;60.76;96233.59;6183160;23;20522;-87
2023/04/03 07:59:01;;;;;;;4.13;3.70;;;;;;;7.13;61.67;96229.56;6183231;23;20218;-85
2023/04/03 08:01:28;;;;;;;5.23;4.13;;;;;;;6.98;60.84;96247.13;6182210;23;20158;-88
2023/04/03 08:03:55;;;;;;;5.63;3.60;;;;;;;6.85;60.26;96238.94;6184407;23;20645;-87
2023/04/03 08:06:25;;;;;;;9.83;3.70;;;;;;;6.82;60.50;96242.56;6183623;23;20205;-88
2023/04/03 08:08:54;;;;;;;5.37;4.00;;;;;;;6.89;60.97;96251.31;6182356;23;20220;-88
2023/04/03 08:11:21;;;;;;;4.20;3.80;;;;;;;6.95;60.94;96242.25;6183518;23;20261;-86
2023/04/03 08:13:47;;;;;;;4.47;4.07;;;;;;;6.98;60.88;96244.56;6182137;23;20178;-88
2023/04/03 08:16:18;;;;;;;4.50;3.77;;;;;;;7.01;60.77;96246.84;6182720;23;20178;-88
2023/04/03 08:18:45;;;;;;;9.23;4.00;;;;;;;7.06;61.06;96251.56;6182218;23;20265;-88
2023/04/03 08:21:15;;;;;;;5.03;4.27;;;;;;;7.05;60.98;96247.38;6182557;23;20185;-87
2023/04/03 08:23:43;;;;;;;4.33;3.77;;;;;;;6.98;60.77;96239.44;6181419;23;20190;-87
2023/04/03 08:26:11;;;;;;;4.60;4.20;;;;;;;7.01;60.89;96241.72;6182130;23;20178;-86
2023/04/03 08:28:38;;;;;;;5.33;4.23;;;;;;;7.07;60.66;96241.19;6179796;23;20181;-85
2023/04/03 08:31:06;;;;;;;4.97;4.47;;;;;;;7.16;61.03;96239.53;6179547;23;20174;-87
2023/04/03 08:33:33;;;;;;;5.30;4.73;;;;;;;7.19;60.67;96244.38;6181110;23;20174;-84
2023/04/03 08:36:00;;;;;;;5.17;4.67;;;;;;;7.13;61.00;96248.28;6180805;23;20186;-85
2023/04/03 08:38:26;;;;;;;11.33;4.97;;;;;;;7.09;61.07;96239.28;6182122;23;20572;-88
2023/04/03 08:41:05;;;;;;;5.07;4.50;;;;;;;7.15;60.88;96248.97;6183091;23;20194;-86
2023/04/03 08:43:38;;;;;;;5.00;4.20;;;;;;;6.88;61.08;96256.56;6181726;23;20602;-88
2023/04/03 08:46:10;;;;;;;18.50;14.47;;;;;;;6.86;61.18;96251.59;6182556;23;20162;-88
2023/04/03 08:48:39;;;;;;;6.20;5.17;;;;;;;6.73;61.01;96252.81;6182331;23;20167;-86
2023/04/03 08:51:14;;;;;;;4.80;4.30;;;;;;;6.75;60.19;96261.16;6183465;23;20705;-88
2023/04/03 08:53:44;;;;;;;5.30;3.90;;;;;;;6.81;59.84;96266.53;6183260;23;20170;-88
2023/04/03 08:56:14;;;;;;;6.90;4.40;;;;;;;6.75;60.26;96261.97;6183875;23;20177;-88
2023/04/03 08:58:45;;;;;;;6.00;4.40;;;;;;;6.62;60.94;96264.00;6184057;23;20174;-87
2023/04/03 09:01:19;;;;;;;5.33;4.20;;;;;;;6.54;61.23;96253.66;6181596;23;20162;-87
2023/04/03 09:03:46;;;;;;;6.27;4.20;;;;;;;6.56;60.53;96269.66;6183633;23;20157;-87
2023/04/03 09:06:15;;;;;;;4.93;4.17;;;;;;;6.85;60.72;96267.09;6183867;23;20178;-86
2023/04/03 09:08:47;;;;;;;4.00;3.60;;;;;;;7.08;60.31;96268.41;6182995;23;20260;-87
2023/04/03 09:11:26;;;;;;;4.73;4.00;;;;;;;7.12;59.53;96267.16;6183673;23;20163;-87
2023/04/03 09:13:58;;;;;;;5.17;4.10;;;;;;;7.18;59.92;96263.25;6180923;23;20582;-86
2023/04/03 09:16:35;;;;;;;7.17;4.20;;;;;;;7.30;59.55;96254.47;6183372;23;20158;-86
2023/04/03 09:19:11;;;;;;;6.80;5.43;;;;;;;7.30;59.58;96254.47;6182956;23;20197;-88
2023/04/03 09:21:42;;;;;;;6.10;5.50;;;;;;;7.28;59.48;96253.78;6184404;23;20162;-87
2023/04/03 09:24:11;;;;;;;6.03;4.57;;;;;;;7.31;59.30;96255.28;6183094;23;20276;-87
2023/04/03 09:26:45;;;;;;;4.57;4.13;;;;;;;7.25;58.68;96249.75;6182516;23;20209;-86
2023/04/03 09:29:18;;;;;;;8.70;7.17;;;;;;;6.89;59.32;96258.19;6181797;23;20198;-89
2023/04/03 09:31:46;;;;;;;15.30;11.97;;;;;;;7.06;60.27;96266.91;6181798;23;20245;-88
2023/04/03 09:34:21;;;;;;;6.30;5.40;;;;;;;7.19;59.71;96252.84;6182987;23;20178;-87
2023/04/03 09:36:49;;;;;;;5.53;4.63;;;;;;;7.38;59.65;96257.13;6182749;23;20217;-88
2023/04/03 09:39:18;;;;;;;6.13;4.67;;;;;;;7.56;59.17;96254.63;6182854;23;20566;-86
2023/04/03 09:41:58;;;;;;;5.60;4.37;;;;;;;7.65;58.45;96252.97;6182589;23;20198;-86
2023/04/03 09:44:27;;;;;;;5.57;4.30;;;;;;;7.75;58.04;96243.47;6181954;23;20159;-88
2023/04/03 09:46:53;;;;;;;4.23;3.87;;;;;;;7.98;57.71;96252.41;6183025;23;20182;-86
2023/04/03 09:49:20;;;;;;;5.37;3.90;;;;;;;8.26;57.23;96248.84;6182768;23;20708;-88
2023/04/03 09:51:46;;;;;;;3.70;3.40;;;;;;;8.28;56.67;96246.13;6182705;23;20661;-87
2023/04/03 09:54:35;;;;;;;4.20;3.70;;;;;;;7.91;55.78;96253.91;6183438;23;20178;-87
2023/04/03 09:57:08;;;;;;;4.23;3.83;;;;;;;7.76;57.26;96250.22;6183759;23;20661;-87
2023/04/03 09:59:34;;;;;;;8.00;3.70;;;;;;;7.65;57.67;96251.22;6182385;23;20752;-86
2023/04/03 10:02:03;;;;;;;5.83;3.90;;;;;;;7.51;58.49;96249.09;6181632;23;20782;-86
2023/04/03 10:04:39;;;;;;;3.93;3.60;;;;;;;7.24;58.78;96249.88;6182918;23;20205;-87
2023/04/03 10:07:37;;;;;;;4.20;3.80;;;;;;;7.31;59.04;96250.16;6182770;23;20457;-86
2023/04/03 10:10:17;;;;;;;3.97;3.57;;;;;;;7.34;58.63;96242.97;6182945;23;20198;-87
2023/04/03 10:12:44;;;;;;;4.60;3.53;;;;;;;7.35;58.97;96243.78;6182568;23;20166;-86
2023/04/03 10:15:13;;;;;;;3.87;3.47;;;;;;;7.30;58.48;96245.97;6183130;23;20174;-87
2023/04/03 10:17:52;;;;;;;9.73;6.63;;;;;;;7.28;58.90;96244.34;6182871;23;20195;-88
2023/04/03 10:20:31;;;;;;;8.23;5.93;;;;;;;7.19;58.73;96245.19;6182177;23;20704;-86
2023/04/03 10:23:15;;;;;;;6.17;4.70;;;;;;;7.17;58.93;96253.94;6184423;23;20193;-86
2023/04/03 10:25:48;;;;;;;4.10;3.60;;;;;;;7.19;59.47;96244.38;6185163;23;20188;-86
2023/04/03 10:28:26;;;;;;;10.43;9.10;;;;;;;7.32;59.56;96239.75;6183935;23;20221;-85
2023/04/03 10:31:05;;;;;;;25.87;19.90;;;;;;;7.46;59.83;96238.50;6183878;23;20205;-86
2023/04/03 10:33:39;;;;;;;5.67;5.13;;;;;;;7.38;59.89;96252.00;6184816;23;20243;-86
2023/04/03 10:36:15;;;;;;;4.20;3.80;;;;;;;7.40;59.64;96250.09;6185259;23;20165;-88
2023/04/03 10:38:51;;;;;;;5.23;4.10;;;;;;;7.20;59.69;96243.44;6184553;23;20547;-88
2023/04/03 10:41:26;;;;;;;4.57;3.80;;;;;;;7.20;59.75;96244.22;6183635;23;20557;-86
2023/04/03 10:44:03;;;;;;;4.23;3.83;;;;;;;7.23;60.62;96243.16;6181464;23;20162;-88
2023/04/03 10:46:36;;;;;;;4.43;3.87;;;;;;;7.32;59.93;96255.09;6182850;23;20166;-85
2023/04/03 10:49:17;;;;;;;4.13;3.30;;;;;;;7.31;58.74;96248.41;6185452;23;20665;-87
2023/04/03 10:51:46;;;;;;;3.60;3.23;;;;;;;7.34;58.75;96255.78;6185175;23;20158;-85
2023/04/03 10:54:21;;;;;;;3.57;2.93;;;;;;;7.23;58.45;96254.22;6185760;23;20178;-88
2023/04/03 10:56:51;;;;;;;6.60;3.50;;;;;;;7.03;56.93;96250.06;6184842;23;20179;-88
2023/04/03 10:59:26;;;;;;;4.10;3.33;;;;;;;6.85;57.41;96260.22;6183154;23;20245;-86
2023/04/03 11:01:56;;;;;;;7.40;2.80;;;;;;;6.74;57.67;96256.97;6183180;23;20157;-87
2023/04/03 11:04:26;;;;;;;14.90;11.23;;;;;;;6.51;58.19;96259.03;6185544;23;20267;-87
2023/04/03 11:06:59;;;;;;;8.00;4.97;;;;;;;6.53;58.28;96254.59;6184505;23;20244;-86
2023/04/03 11:09:29;;;;;;;4.30;3.33;;;;;;;6.52;58.59;96253.78;6183739;23;20724;-87
2023/04/03 11:12:05;;;;;;;4.03;2.90;;;;;;;6.70;58.74;96255.66;6186128;23;20158;-87
2023/04/03 11:14:34;;;;;;;4.70;2.87;;;;;;;6.82;58.51;96260.47;6184639;23;20632;-87
2023/04/03 11:17:12;;;;;;;3.33;2.77;;;;;;;6.80;58.10;96253.88;6184706;23;20174;-86
2023/04/03 11:19:46;;;;;;;3.33;2.67;;;;;;;6.60;58.09;96253.09;6184267;23;20209;-86
2023/04/03 11:22:22;;;;;;;8.03;2.97;;;;;;;6.64;58.57;96249.31;6185133;23;20159;-86
2023/04/03 11:24:59;;;;;;;3.37;2.80;;;;;;;6.77;58.10;96254.16;6184047;23;20158;-86
2023/04/03 11:27:30;;;;;;;3.77;2.70;;;;;;;6.89;57.70;96243.66;6182484;23;20217;-86
2023/04/03 11:29:58;;;;;;;3.53;2.70;;;;;;;6.65;57.96;96245.81;6182878;23;20224;-85
2023/04/03 11:32:50;;;;;;;5.30;2.93;;;;;;;6.76;58.37;96244.84;6184084;23;20198;-85
2023/04/03 11:35:19;;;;;;;3.20;2.70;;;;;;;6.89;58.25;96248.75;6184771;23;20181;-86
2023/04/03 11:37:49;;;;;;;5.90;2.70;;;;;;;6.69;58.53;96248.91;6182624;23;20201;-86
2023/04/03 11:40:26;;;;;;;8.13;3.90;;;;;;;6.54;59.00;96243.41;6183634;23;20684;-86
2023/04/03 11:42:54;;;;;;;3.97;2.70;;;;;;;6.70;57.83;96243.66;6183460;23;20158;-86
2023/04/03 11:45:36;;;;;;;3.00;2.50;;;;;;;6.83;56.19;96239.06;6183823;23;20178;-86
2023/04/03 11:48:06;;;;;;;5.17;2.80;;;;;;;6.81;57.40;96237.56;6182920;23;20237;-85
2023/04/03 11:50:40;;;;;;;2.97;2.63;;;;;;;7.07;57.11;96230.13;6183420;23;20194;-86
2023/04/03 11:53:33;;;;;;;3.20;2.43;;;;;;;7.34;56.76;96224.22;6183215;23;20169;-85
2023/04/03 11:56:02;;;;;;;4.93;2.57;;;;;;;7.27;54.41;96224.00;6182873;23;20162;-86